Time;durP1;ratioP1;P1;durP2;ratioP2;P2;SDS_P1;SDS_P2;PMS_P1;PMS_P2;Temp;Humidity;BMP_temperature;BMP_pressure;BME280_temperature;BME280_humidity;BME280_pressure;Samples;Min_cycle;Max_cycle;Signal;HPM_P1;HPM_P2
2021/08/26 00:07:36;;;;;;;30.13;5.47;;;14.10;99.90;;;;;;4345418;36;20027;-72
2021/08/26 00:11:38;;;;;;;36.70;5.43;;;14.10;99.90;;;;;;4365262;36;20106;-72
2021/08/26 00:15:43;;;;;;;;;;;14.10;99.90;;;;;;4347034;36;20126;-72
2021/08/26 00:19:46;;;;;;;35.35;5.75;;;14.00;99.90;;;;;;4345367;36;20078;-73
2021/08/26 00:23:48;;;;;;;36.03;6.50;;;14.00;99.90;;;;;;4364637;36;20149;-72
2021/08/26 00:27:50;;;;;;;33.60;5.38;;;14.10;99.90;;;;;;4346404;36;20030;-73
2021/08/26 00:31:52;;;;;;;33.95;5.13;;;14.00;99.90;;;;;;4346814;36;20026;-73
2021/08/26 00:35:54;;;;;;;;;;;14.00;99.90;;;;;;4366506;36;20046;-73
2021/08/26 00:39:58;;;;;;;25.63;4.50;;;14.00;99.90;;;;;;4345448;36;19951;-74
2021/08/26 00:44:00;;;;;;;29.05;5.13;;;14.00;99.90;;;;;;4347757;36;20060;-72
2021/08/26 00:48:04;;;;;;;27.92;4.82;;;14.00;99.90;;;;;;4365389;36;20150;-73
2021/08/26 00:52:10;;;;;;;31.13;5.25;;;14.00;99.90;;;;;;4346589;36;20098;-73
2021/08/26 00:56:16;;;;;;;25.35;5.70;;;14.10;99.90;;;;;;4364893;36;20133;-73
2021/08/26 01:00:19;;;;;;;28.45;4.65;;;14.10;99.90;;;;;;4347659;36;20031;-73
2021/08/26 01:04:37;;;;;;;30.13;5.47;;;14.10;99.90;;;;;;4346502;36;20033;-73
2021/08/26 01:08:50;;;;;;;30.27;5.50;;;14.10;99.90;;;;;;4365275;36;20037;-73
2021/08/26 01:12:58;;;;;;;26.15;4.82;;;14.10;99.90;;;;;;4346741;36;20599;-74
2021/08/26 01:17:00;;;;;;;27.92;5.25;;;14.10;99.90;;;;;;4346570;36;20099;-73
2021/08/26 01:21:03;;;;;;;24.40;4.63;;;14.10;99.90;;;;;;4364804;36;20038;-72
2021/08/26 01:25:05;;;;;;;29.73;5.10;;;14.10;99.90;;;;;;4346861;36;20042;-73
2021/08/26 01:29:08;;;;;;;25.77;5.15;;;14.00;99.90;;;;;;4364857;36;20035;-73
2021/08/26 01:33:10;;;;;;;22.73;4.47;;;14.10;99.90;;;;;;4347128;36;20031;-73
2021/08/26 01:37:16;;;;;;;32.78;5.97;;;14.00;99.90;;;;;;4346424;36;20048;-72
2021/08/26 01:41:19;;;;;;;23.45;4.95;;;14.00;99.90;;;;;;4366420;36;20038;-72
2021/08/26 01:45:21;;;;;;;31.50;4.32;;;14.00;99.90;;;;;;4347375;36;20046;-72
2021/08/26 01:49:24;;;;;;;23.02;4.10;;;14.00;99.90;;;;;;4346773;36;20068;-72
2021/08/26 01:53:26;;;;;;;22.92;5.43;;;14.00;99.90;;;;;;4365266;36;20631;-72
2021/08/26 01:57:28;;;;;;;27.20;4.47;;;14.10;99.90;;;;;;4347204;36;20086;-73
2021/08/26 02:01:30;;;;;;;30.05;4.38;;;14.10;99.90;;;;;;4347344;36;20062;-72
2021/08/26 02:05:36;;;;;;;24.23;4.57;;;14.10;99.90;;;;;;4366682;36;20565;-72
2021/08/26 02:09:38;;;;;;;18.92;4.20;;;14.10;99.90;;;;;;4345965;36;20197;-72
2021/08/26 02:13:40;;;;;;;22.35;3.92;;;14.10;99.90;;;;;;4346401;36;20030;-71
2021/08/26 02:17:42;;;;;;;21.00;3.88;;;14.10;99.90;;;;;;4365645;36;20034;-72
2021/08/26 02:21:44;;;;;;;15.95;4.05;;;14.10;99.90;;;;;;4346537;36;20111;-72
2021/08/26 02:25:46;;;;;;;;;;;14.00;99.90;;;;;;4347839;36;20050;-73
2021/08/26 02:29:48;;;;;;;14.45;3.00;;;14.00;99.90;;;;;;4364596;36;19947;-72
2021/08/26 02:33:50;;;;;;;16.85;2.97;;;14.00;99.90;;;;;;4346256;36;20784;-72
2021/08/26 02:37:52;;;;;;;10.85;2.78;;;14.00;99.90;;;;;;4347366;31;20540;-72
2021/08/26 02:41:54;;;;;;;;;;;13.90;99.90;;;;;;4365225;36;20082;-71
2021/08/26 02:45:56;;;;;;;10.63;1.80;;;13.90;99.90;;;;;;4346178;36;20449;-73
2021/08/26 02:49:58;;;;;;;9.25;2.15;;;13.90;99.90;;;;;;4346293;36;20456;-72
2021/08/26 02:54:00;;;;;;;7.93;2.17;;;13.90;99.90;;;;;;4366111;31;20588;-72
2021/08/26 02:58:02;;;;;;;8.15;1.85;;;13.90;99.90;;;;;;4346937;36;20035;-72
2021/08/26 03:02:04;;;;;;;11.43;2.50;;;13.90;99.90;;;;;;4365617;36;20709;-73
2021/08/26 03:06:07;;;;;;;8.20;2.17;;;13.90;99.90;;;;;;4346385;36;20078;-71
2021/08/26 03:10:10;;;;;;;11.65;1.98;;;13.90;99.90;;;;;;4346888;36;20512;-73
2021/08/26 03:14:11;;;;;;;8.85;1.50;;;13.90;99.90;;;;;;4364620;36;20088;-73
2021/08/26 03:18:13;;;;;;;;;;;13.90;99.90;;;;;;4346905;36;20443;-72
2021/08/26 03:22:15;;;;;;;12.50;1.48;;;13.90;99.90;;;;;;4347756;36;20436;-72
2021/08/26 03:26:17;;;;;;;7.10;1.63;;;13.90;99.90;;;;;;4364261;36;20035;-73
2021/08/26 03:30:19;;;;;;;5.53;1.42;;;13.80;99.90;;;;;;4346587;36;20114;-72
2021/08/26 03:34:21;;;;;;;12.48;1.83;;;13.90;99.90;;;;;;4346106;36;20034;-72
2021/08/26 03:38:23;;;;;;;6.50;1.65;;;13.90;99.90;;;;;;4364448;36;20590;-71
2021/08/26 03:42:25;;;;;;;5.97;1.35;;;13.90;99.90;;;;;;4346894;36;20085;-73
2021/08/26 03:46:27;;;;;;;5.57;1.33;;;13.80;99.90;;;;;;4346223;36;20149;-73
2021/08/26 03:50:29;;;;;;;6.05;1.25;;;13.80;99.90;;;;;;4364709;31;20623;-73
2021/08/26 03:54:31;;;;;;;5.90;1.20;;;13.80;99.90;;;;;;4346794;36;20484;-73
2021/08/26 03:58:34;;;;;;;4.53;1.30;;;13.80;99.90;;;;;;4346589;36;20118;-73
2021/08/26 04:02:36;;;;;;;5.50;0.90;;;13.80;99.90;;;;;;4364301;36;20034;-72
2021/08/26 04:06:39;;;;;;;9.70;1.38;;;13.80;99.90;;;;;;4346904;36;20046;-73
2021/08/26 04:10:41;;;;;;;6.82;1.15;;;13.70;99.90;;;;;;4345947;36;20039;-72
2021/08/26 04:14:43;;;;;;;6.45;1.00;;;13.80;99.90;;;;;;4365174;36;20491;-72
2021/08/26 04:18:44;;;;;;;7.57;0.90;;;13.70;99.90;;;;;;4347745;36;20034;-73
2021/08/26 04:22:47;;;;;;;11.13;1.15;;;13.70;99.90;;;;;;4346755;36;20042;-72
2021/08/26 04:26:49;;;;;;;6.03;0.98;;;13.70;99.90;;;;;;4365559;36;20796;-73
2021/08/26 04:30:51;;;;;;;4.85;1.00;;;13.70;99.90;;;;;;4346612;36;20145;-74
2021/08/26 04:34:53;;;;;;;9.25;1.05;;;13.70;99.90;;;;;;4347019;36;20042;-73
2021/08/26 04:38:55;;;;;;;5.60;0.95;;;13.70;99.90;;;;;;4364931;36;20728;-72
2021/08/26 04:42:57;;;;;;;;;;;13.70;99.90;;;;;;4347468;36;20759;-73
2021/08/26 04:46:59;;;;;;;6.00;1.23;;;13.70;99.90;;;;;;4346151;36;20014;-72
2021/08/26 04:51:00;;;;;;;7.28;1.20;;;13.60;99.90;;;;;;4364465;36;20038;-73
2021/08/26 04:55:03;;;;;;;5.55;1.10;;;13.60;99.90;;;;;;4347260;36;20034;-72
2021/08/26 04:59:05;;;;;;;5.07;0.90;;;13.60;99.90;;;;;;4364913;36;20042;-72
2021/08/26 05:03:07;;;;;;;4.88;1.33;;;13.60;99.90;;;;;;4347399;36;20452;-73
2021/08/26 05:07:10;;;;;;;5.78;1.13;;;13.50;99.90;;;;;;4347950;36;20042;-72
2021/08/26 05:11:19;;;;;;;3.67;0.95;;;13.50;99.90;;;;;;4365804;36;20038;-72
2021/08/26 05:15:21;;;;;;;8.18;1.38;;;13.60;99.90;;;;;;4347635;36;20437;-73
2021/08/26 05:19:23;;;;;;;5.38;0.98;;;13.60;99.90;;;;;;4346728;36;20041;-73
2021/08/26 05:23:25;;;;;;;3.50;0.90;;;13.60;99.90;;;;;;4365507;36;20026;-72
2021/08/26 05:27:27;;;;;;;5.25;0.75;;;13.60;99.90;;;;;;4347741;36;20030;-72
2021/08/26 05:31:29;;;;;;;6.13;0.85;;;13.70;99.90;;;;;;4348166;36;20028;-74
2021/08/26 05:35:31;;;;;;;4.82;1.00;;;13.70;99.90;;;;;;4366429;36;20034;-74
2021/08/26 05:39:36;;;;;;;8.35;1.17;;;13.70;99.90;;;;;;4347318;36;20035;-73
2021/08/26 05:43:38;;;;;;;4.80;0.80;;;13.80;99.90;;;;;;4348164;36;20046;-73
2021/08/26 05:47:40;;;;;;;5.63;0.95;;;13.80;99.90;;;;;;4365391;36;20027;-73
2021/08/26 05:51:41;;;;;;;4.85;0.50;;;13.90;99.90;;;;;;4346402;36;20035;-73
2021/08/26 05:55:43;;;;;;;8.70;1.05;;;13.90;99.90;;;;;;4346590;36;20042;-74
2021/08/26 05:59:45;;;;;;;5.35;0.70;;;13.90;99.90;;;;;;4365279;36;20794;-73
2021/08/26 06:03:47;;;;;;;10.02;0.82;;;14.00;99.90;;;;;;4346625;36;20450;-74
2021/08/26 06:07:49;;;;;;;5.15;0.95;;;14.00;99.80;;;;;;4346553;36;20082;-73
2021/08/26 06:11:51;;;;;;;;;;;14.00;99.50;;;;;;4365041;36;20045;-75
2021/08/26 06:15:53;;;;;;;3.37;0.63;;;14.00;98.70;;;;;;4346893;36;19963;-74
2021/08/26 06:19:55;;;;;;;6.32;0.70;;;14.10;99.10;;;;;;4346341;36;20499;-73
2021/08/26 06:23:58;;;;;;;3.67;0.70;;;14.20;98.90;;;;;;4347028;36;20030;-74
2021/08/26 06:28:00;;;;;;;5.68;0.77;;;14.30;98.50;;;;;;4364618;36;20038;-74
2021/08/26 06:32:04;;;;;;;4.05;0.73;;;14.30;98.50;;;;;;4346389;36;20034;-73
2021/08/26 06:36:06;;;;;;;6.43;0.57;;;14.40;98.40;;;;;;4344955;36;20556;-74
2021/08/26 06:40:09;;;;;;;4.88;0.60;;;14.50;98.00;;;;;;4362939;36;20559;-73
2021/08/26 06:44:11;;;;;;;5.13;0.50;;;14.60;97.90;;;;;;4344552;36;20038;-74
2021/08/26 06:48:13;;;;;;;13.07;1.10;;;14.80;97.70;;;;;;4346881;36;20039;-73
2021/08/26 06:52:15;;;;;;;6.68;0.88;;;14.90;97.40;;;;;;4344283;36;20037;-73
2021/08/26 06:56:17;;;;;;;4.50;0.73;;;15.10;96.80;;;;;;4344115;36;20035;-74
2021/08/26 07:00:19;;;;;;;5.57;0.50;;;15.20;96.80;;;;;;4363345;36;20030;-73
2021/08/26 07:04:21;;;;;;;4.18;1.05;;;15.50;96.40;;;;;;4343719;36;20086;-72
2021/08/26 07:08:23;;;;;;;5.10;0.70;;;15.30;95.90;;;;;;4345135;36;20041;-73
2021/08/26 07:12:30;;;;;;;4.25;0.65;;;15.50;95.60;;;;;;4363620;36;20106;-72
2021/08/26 07:16:32;;;;;;;4.35;0.68;;;15.60;95.00;;;;;;4343148;36;20038;-73
2021/08/26 07:20:34;;;;;;;3.85;0.52;;;15.60;95.30;;;;;;4344841;36;20035;-74
2021/08/26 07:24:36;;;;;;;;;;;15.70;94.70;;;;;;4362818;36;20038;-73
2021/08/26 07:28:38;;;;;;;7.13;0.60;;;15.70;91.90;;;;;;4343000;36;20444;-73
2021/08/26 07:32:40;;;;;;;3.40;0.65;;;15.80;94.80;;;;;;4344792;36;20038;-73
2021/08/26 07:36:42;;;;;;;3.05;0.35;;;15.80;94.70;;;;;;4361758;36;20030;-74
2021/08/26 07:40:44;;;;;;;4.90;0.60;;;15.90;94.60;;;;;;4345590;36;20034;-74
2021/08/26 07:44:46;;;;;;;4.38;0.60;;;16.00;93.90;;;;;;4345473;36;20030;-74
2021/08/26 07:48:48;;;;;;;4.50;0.60;;;16.10;94.20;;;;;;4363961;36;20031;-73
2021/08/26 07:52:50;;;;;;;3.75;0.40;;;16.20;93.60;;;;;;4345268;36;20034;-75
2021/08/26 07:56:52;;;;;;;1.45;0.20;;;16.30;93.70;;;;;;4347388;36;20986;-75
2021/08/26 08:00:54;;;;;;;;;;;16.40;93.20;;;;;;4365437;36;20037;-74
2021/08/26 08:04:57;;;;;;;;;;;16.40;86.10;;;;;;4346628;36;19946;-75
2021/08/26 08:08:59;;;;;;;0.98;0.22;;;16.20;86.40;;;;;;4346273;36;19962;-75
2021/08/26 08:13:01;;;;;;;2.53;0.38;;;16.10;91.50;;;;;;4364927;36;20572;-75
2021/08/26 08:17:03;;;;;;;1.33;0.40;;;16.20;91.70;;;;;;4345768;36;20035;-75
2021/08/26 08:21:05;;;;;;;;;;;16.30;90.80;;;;;;4345921;36;20552;-73
2021/08/26 08:25:07;;;;;;;2.88;0.45;;;16.20;90.60;;;;;;4365029;36;19947;-74
2021/08/26 08:29:09;;;;;;;4.45;0.50;;;16.30;91.40;;;;;;4345773;36;20026;-74
2021/08/26 08:33:11;;;;;;;;;;;16.40;91.70;;;;;;4346321;36;20060;-74
2021/08/26 08:37:13;;;;;;;1.65;0.30;;;16.50;83.90;;;;;;4363851;36;19947;-73
2021/08/26 08:41:20;;;;;;;1.92;0.57;;;16.60;91.50;;;;;;4345259;36;20556;-74
2021/08/26 08:45:22;;;;;;;1.35;0.30;;;16.60;90.80;;;;;;4364343;36;20461;-75
2021/08/26 13:34:33;;;;;;;3.78;0.77;;;20.00;82.00;;;;;;4353714;36;24483;-75
2021/08/26 13:38:35;;;;;;;4.93;1.02;;;19.60;83.60;;;;;;4352583;36;20556;-74
2021/08/26 13:42:38;;;;;;;4.53;1.10;;;19.30;84.70;;;;;;4369692;36;20039;-73
2021/08/26 13:46:43;;;;;;;3.47;1.05;;;19.10;85.10;;;;;;4347758;36;20039;-75
2021/08/26 13:50:49;;;;;;;4.28;1.00;;;19.00;85.30;;;;;;4347005;36;20050;-74
2021/08/26 13:54:50;;;;;;;7.68;1.55;;;18.70;84.90;;;;;;4453485;36;20651;-74
2021/08/26 13:58:54;;;;;;;;;;;18.70;86.20;;;;;;4347676;36;20539;-73
2021/08/26 14:03:00;;;;;;;5.45;1.58;;;18.70;84.30;;;;;;4347579;36;19981;-73
2021/08/26 14:07:04;;;;;;;6.65;0.70;;;18.60;86.80;;;;;;4366102;36;20724;-73
2021/08/26 14:11:07;;;;;;;3.97;1.00;;;18.60;86.50;;;;;;4347359;36;20604;-74
2021/08/26 14:15:12;;;;;;;4.20;1.00;;;18.50;86.20;;;;;;4367531;36;20038;-73
2021/08/26 14:19:14;;;;;;;8.80;1.02;;;18.30;87.50;;;;;;4347014;36;20046;-73
2021/08/26 14:23:16;;;;;;;5.07;1.20;;;18.30;87.30;;;;;;4346188;36;20131;-73
2021/08/26 14:27:18;;;;;;;7.25;1.15;;;19.10;88.20;;;;;;4414241;36;20038;-74
2021/08/26 14:31:20;;;;;;;7.07;1.35;;;18.20;88.10;;;;;;4348745;36;20034;-74
2021/08/26 14:35:24;;;;;;;3.80;1.10;;;18.10;88.30;;;;;;4399649;36;20547;-75
2021/08/26 14:39:26;;;;;;;6.47;1.00;;;18.10;88.30;;;;;;4366921;36;20543;-74
2021/08/26 14:43:29;;;;;;;11.68;1.10;;;18.10;87.80;;;;;;4348458;36;20310;-74
2021/08/26 14:47:31;;;;;;;11.55;1.30;;;18.00;88.00;;;;;;4345592;36;20046;-74
2021/08/26 14:51:34;;;;;;;4.68;1.40;;;18.00;88.70;;;;;;4365272;36;20038;-73
2021/08/26 14:55:36;;;;;;;6.53;1.50;;;18.00;89.70;;;;;;4347464;36;20153;-73
2021/08/26 14:59:39;;;;;;;9.85;1.20;;;17.90;88.60;;;;;;4349073;36;20037;-73
2021/08/26 15:03:43;;;;;;;8.52;1.13;;;18.00;88.40;;;;;;4365093;36;20034;-73
2021/08/26 15:07:46;;;;;;;11.23;1.35;;;17.80;88.60;;;;;;4348847;36;20039;-74
2021/08/26 15:11:48;;;;;;;;;;;18.70;90.00;;;;;;4348531;36;20057;-73
2021/08/26 15:15:50;;;;;;;5.05;0.80;;;17.40;89.00;;;;;;4368057;36;20002;-73
2021/08/26 15:19:52;;;;;;;4.15;0.85;;;17.30;90.10;;;;;;4347702;36;20063;-74
2021/08/26 15:23:56;;;;;;;6.88;1.52;;;17.50;90.30;;;;;;4345579;36;20074;-73
2021/08/26 15:28:02;;;;;;;4.50;1.20;;;17.00;90.70;;;;;;4365488;36;20451;-73
2021/08/26 15:32:06;;;;;;;6.90;1.20;;;17.20;90.60;;;;;;4350869;36;20557;-74
2021/08/26 15:36:08;;;;;;;6.38;1.17;;;17.10;90.70;;;;;;4359612;36;20484;-74
2021/08/26 15:40:11;;;;;;;4.00;0.90;;;17.10;90.60;;;;;;4348175;36;20037;-74
2021/08/26 15:44:15;;;;;;;6.95;1.30;;;17.00;90.80;;;;;;4346950;36;20137;-73
2021/08/26 15:48:17;;;;;;;9.18;1.00;;;18.00;91.20;;;;;;4366662;36;20731;-75
2021/08/26 15:52:20;;;;;;;6.45;1.30;;;16.90;91.00;;;;;;4350029;31;20582;-75
2021/08/26 15:56:24;;;;;;;5.13;1.05;;;16.80;91.50;;;;;;4347564;36;20060;-74
2021/08/26 16:04:29;;;;;;;4.78;1.15;;;16.60;91.60;;;;;;4349345;36;20102;-74
2021/08/26 16:08:32;;;;;;;5.57;1.17;;;16.50;91.70;;;;;;4347971;36;20034;-74
2021/08/26 16:12:34;;;;;;;1.67;0.70;;;16.60;91.90;;;;;;4363841;36;20042;-75
2021/08/26 16:16:36;;;;;;;;;;;16.50;92.00;;;;;;4348794;36;20616;-74
2021/08/26 16:20:41;;;;;;;8.40;1.17;;;16.40;92.20;;;;;;4346973;36;19946;-75
2021/08/26 16:24:43;;;;;;;3.03;1.23;;;16.50;91.80;;;;;;4365415;36;20042;-73
2021/08/26 16:28:45;;;;;;;3.83;1.13;;;16.40;91.80;;;;;;4348413;36;20038;-73
2021/08/26 16:32:47;;;;;;;;;;;16.40;92.00;;;;;;4349459;36;20046;-74
2021/08/26 16:36:50;;;;;;;;;;;16.30;92.90;;;;;;4366797;36;19950;-74
2021/08/26 16:40:52;;;;;;;;;;;16.40;93.10;;;;;;4348976;36;19946;-75
2021/08/26 16:44:54;;;;;;;3.80;1.25;;;16.20;93.40;;;;;;4347872;36;19953;-75
2021/08/26 16:48:56;;;;;;;7.18;1.25;;;16.20;92.40;;;;;;4366259;36;20050;-74
2021/08/26 16:52:59;;;;;;;4.10;1.20;;;16.50;92.60;;;;;;4349532;36;20565;-73
2021/08/26 16:57:01;;;;;;;;;;;16.20;92.30;;;;;;4348605;36;20071;-74
2021/08/26 17:01:03;;;;;;;7.60;1.25;;;16.20;93.00;;;;;;4522443;36;19950;-74
2021/08/26 17:05:06;;;;;;;5.80;1.20;;;16.10;92.30;;;;;;4346538;36;20038;-74
2021/08/26 17:09:09;;;;;;;6.22;1.30;;;16.10;92.30;;;;;;4397271;36;20529;-74
2021/08/26 17:13:11;;;;;;;;;;;16.20;92.40;;;;;;4347974;31;20521;-74
2021/08/26 17:17:13;;;;;;;8.23;1.67;;;16.20;93.20;;;;;;4348038;36;19956;-74
2021/08/26 17:21:15;;;;;;;;;;;17.50;93.10;;;;;;4367433;36;20045;-74
2021/08/26 17:25:17;;;;;;;8.38;1.70;;;16.20;93.30;;;;;;4347475;36;21549;-74
2021/08/26 17:29:19;;;;;;;;;;;16.10;92.60;;;;;;4348198;36;20095;-74
2021/08/26 17:33:21;;;;;;;9.13;1.48;;;16.20;93.60;;;;;;4368707;36;19975;-74
2021/08/26 17:37:23;;;;;;;4.15;1.58;;;16.00;92.80;;;;;;4349327;36;20053;-74
2021/08/26 17:41:25;;;;;;;7.80;1.52;;;15.80;93.10;;;;;;4350142;36;20038;-74
2021/08/26 17:45:29;;;;;;;;;;;15.60;93.50;;;;;;4370352;36;20065;-73
2021/08/26 17:49:32;;;;;;;4.78;1.25;;;15.50;95.10;;;;;;4350354;36;19976;-76
2021/08/26 17:53:34;;;;;;;5.45;1.50;;;15.40;94.30;;;;;;4350188;36;20042;-75
2021/08/26 17:57:39;;;;;;;9.63;1.67;;;15.30;94.50;;;;;;4369447;36;20037;-74
2021/08/26 18:01:41;;;;;;;4.28;1.70;;;15.20;94.90;;;;;;4350966;36;20484;-74
2021/08/26 18:05:44;;;;;;;7.63;1.67;;;15.20;95.20;;;;;;4350233;36;20074;-74
2021/08/26 18:09:46;;;;;;;6.28;1.70;;;15.00;95.50;;;;;;4367524;36;20038;-75
2021/08/26 18:13:48;;;;;;;6.28;1.90;;;14.90;95.70;;;;;;4348619;36;20502;-75
2021/08/26 18:17:50;;;;;;;;;;;15.10;95.50;;;;;;4345157;36;20038;-74
2021/08/26 18:21:52;;;;;;;5.80;1.90;;;17.30;98.50;;;;;;4366246;36;19995;-75
2021/08/26 18:25:54;;;;;;;;;;;15.40;95.90;;;;;;4348954;36;20083;-75
2021/08/26 18:29:56;;;;;;;6.07;1.33;;;16.00;98.60;;;;;;4349969;36;20444;-74
2021/08/26 18:33:59;;;;;;;9.52;1.80;;;16.60;96.40;;;;;;4369386;36;20539;-74
2021/08/26 18:38:01;;;;;;;4.63;1.70;;;14.80;96.10;;;;;;4349484;36;20057;-75
2021/08/26 18:42:03;;;;;;;4.30;1.73;;;14.60;96.20;;;;;;4350849;36;20022;-75
2021/08/26 18:46:09;;;;;;;6.28;1.85;;;14.60;96.90;;;;;;4368512;36;20034;-75
2021/08/26 18:50:12;;;;;;;6.88;2.38;;;14.90;96.80;;;;;;4353179;36;20631;-74
2021/08/26 18:54:14;;;;;;;7.28;1.40;;;14.40;96.60;;;;;;4369768;36;20701;-74
2021/08/26 18:58:16;;;;;;;;;;;13.50;96.90;;;;;;4352405;36;20039;-77
2021/08/26 19:02:18;;;;;;;5.22;1.92;;;16.20;99.90;;;;;;4351344;36;19957;-75
2021/08/26 19:06:21;;;;;;;4.22;1.60;;;14.30;97.60;;;;;;4369933;36;20038;-74
2021/08/26 19:10:23;;;;;;;;;;;14.20;97.50;;;;;;4352211;36;20039;-74
2021/08/26 19:14:25;;;;;;;3.75;1.15;;;13.50;99.90;;;;;;4350726;36;20013;-74
2021/08/26 19:18:27;;;;;;;3.55;1.20;;;14.10;97.30;;;;;;4368998;36;20048;-74
2021/08/26 19:22:30;;;;;;;;;;;14.10;97.60;;;;;;4352000;36;20054;-74
2021/08/26 19:26:32;;;;;;;;;;;14.10;99.80;;;;;;4351717;36;19953;-74
2021/08/26 19:30:36;;;;;;;4.93;1.42;;;16.30;99.90;;;;;;4368673;36;19950;-74
2021/08/26 19:34:39;;;;;;;6.93;1.63;;;14.00;98.00;;;;;;4350606;36;20723;-73
2021/08/26 19:38:41;;;;;;;7.32;1.52;;;14.00;97.90;;;;;;4348272;36;20054;-74
2021/08/26 19:42:43;;;;;;;4.25;1.17;;;14.40;97.90;;;;;;4367599;36;20032;-74
2021/08/26 19:46:45;;;;;;;8.02;1.50;;;15.40;98.10;;;;;;4350274;36;20035;-73
2021/08/26 19:50:48;;;;;;;5.57;2.40;;;14.00;97.80;;;;;;4350742;36;20111;-74
2021/08/26 19:54:50;;;;;;;6.70;1.33;;;14.00;98.00;;;;;;4369151;36;20809;-73
2021/08/26 19:58:52;;;;;;;4.15;1.33;;;13.90;98.10;;;;;;4351446;36;20057;-73
2021/08/26 20:02:55;;;;;;;4.15;1.40;;;13.90;98.20;;;;;;4349332;36;20062;-74
2021/08/26 20:06:58;;;;;;;5.32;1.60;;;13.80;98.50;;;;;;4369514;36;20038;-74
2021/08/26 20:11:03;;;;;;;3.63;1.60;;;13.90;98.70;;;;;;4350760;36;20042;-74
2021/08/26 20:15:06;;;;;;;7.30;1.45;;;16.30;99.20;;;;;;4350430;36;20111;-73
2021/08/26 20:19:08;;;;;;;4.95;1.27;;;13.70;98.60;;;;;;4369394;36;20419;-74
2021/08/26 20:23:12;;;;;;;4.13;1.30;;;13.70;98.50;;;;;;4350366;36;20751;-74
2021/08/26 20:27:17;;;;;;;6.20;1.50;;;13.70;98.50;;;;;;4369435;36;20038;-74
2021/08/26 20:31:19;;;;;;;8.60;1.67;;;13.70;98.60;;;;;;4350503;36;20162;-74
2021/08/26 20:35:22;;;;;;;7.65;1.50;;;14.80;98.70;;;;;;4351057;36;20096;-73
2021/08/26 20:39:24;;;;;;;;;;;16.00;99.20;;;;;;4368013;36;20069;-74
2021/08/26 20:43:26;;;;;;;4.23;1.07;;;11.90;99.90;;;;;;4351079;36;19981;-73
2021/08/26 20:47:28;;;;;;;;;;;13.50;98.70;;;;;;4349006;36;20572;-73
2021/08/26 20:51:30;;;;;;;5.32;1.30;;;13.50;99.90;;;;;;4368344;36;19998;-74
2021/08/26 20:55:32;;;;;;;;;;;13.60;98.80;;;;;;4351649;36;20038;-73
2021/08/26 20:59:34;;;;;;;3.67;1.08;;;13.40;99.90;;;;;;4350604;36;19946;-73
2021/08/26 21:03:36;;;;;;;3.38;0.90;;;13.50;98.70;;;;;;4370220;36;20063;-73
2021/08/26 21:07:38;;;;;;;4.97;1.20;;;13.50;98.50;;;;;;4352443;36;20039;-74
2021/08/26 21:11:43;;;;;;;;;;;13.50;98.40;;;;;;4352808;36;20588;-74
2021/08/26 21:15:45;;;;;;;3.47;1.27;;;13.60;99.90;;;;;;4369986;36;19946;-73
2021/08/26 21:19:47;;;;;;;7.10;2.20;;;13.60;98.40;;;;;;4351037;36;20034;-74
2021/08/26 21:23:49;;;;;;;;;;;13.60;98.20;;;;;;4352323;31;20544;-74
2021/08/26 21:27:51;;;;;;;5.43;1.50;;;13.60;99.90;;;;;;4369954;36;19962;-73
2021/08/26 21:31:53;;;;;;;6.35;1.45;;;13.60;98.10;;;;;;4350561;36;20057;-73
2021/08/26 21:35:58;;;;;;;4.38;1.20;;;13.60;98.20;;;;;;4351848;36;20031;-73
2021/08/26 21:40:04;;;;;;;4.55;0.98;;;13.60;99.80;;;;;;4370766;36;20718;-73
2021/08/26 21:44:07;;;;;;;3.67;1.48;;;13.60;98.10;;;;;;4351783;36;20038;-72
2021/08/26 21:48:14;;;;;;;6.43;1.73;;;13.60;98.30;;;;;;4366964;36;20056;-73
2021/08/26 21:52:16;;;;;;;4.10;1.23;;;13.60;98.20;;;;;;4348390;36;20049;-73
2021/08/26 21:56:18;;;;;;;5.28;1.58;;;13.60;98.20;;;;;;4349368;36;20098;-72
2021/08/26 22:00:26;;;;;;;;;;;14.60;98.70;;;;;;4367294;36;20039;-74
2021/08/26 22:04:28;;;;;;;4.75;1.50;;;13.60;99.90;;;;;;4345228;36;19962;-74
2021/08/26 22:08:30;;;;;;;4.63;1.38;;;13.60;98.10;;;;;;4345178;36;20631;-74
2021/08/26 22:12:32;;;;;;;;;;;13.60;98.00;;;;;;4365470;36;21037;-76
2021/08/26 22:16:34;;;;;;;4.00;1.17;;;14.90;99.90;;;;;;4344609;36;20378;-73
2021/08/26 22:20:36;;;;;;;;;;;13.40;98.30;;;;;;4344493;36;20552;-74
2021/08/26 22:24:42;;;;;;;8.07;1.40;;;13.40;99.90;;;;;;4363463;36;19952;-74
2021/08/26 22:28:44;;;;;;;4.45;1.35;;;13.40;98.30;;;;;;4347405;36;20034;-73
2021/08/26 22:32:46;;;;;;;4.85;1.80;;;13.40;98.40;;;;;;4347025;36;20565;-74
2021/08/26 22:36:48;;;;;;;3.97;1.45;;;13.30;98.40;;;;;;4365871;36;20038;-73
2021/08/26 22:40:51;;;;;;;5.88;1.73;;;13.30;98.50;;;;;;4346855;36;20580;-75
2021/08/26 22:44:53;;;;;;;4.15;1.42;;;13.20;98.30;;;;;;4347498;36;20599;-73
2021/08/26 22:48:55;;;;;;;;;;;14.20;98.70;;;;;;4363760;36;20035;-73
2021/08/26 22:52:57;;;;;;;5.23;1.60;;;13.20;99.90;;;;;;4346386;36;19950;-73
2021/08/26 22:56:59;;;;;;;;;;;13.30;98.40;;;;;;4346366;36;20038;-74
2021/08/26 23:01:01;;;;;;;4.77;1.33;;;13.30;99.90;;;;;;4363179;36;20769;-74
2021/08/26 23:05:05;;;;;;;6.18;1.58;;;13.30;98.30;;;;;;4346781;36;20066;-73
2021/08/26 23:09:07;;;;;;;5.40;1.85;;;13.30;98.10;;;;;;4350713;36;20367;-73
2021/08/26 23:13:10;;;;;;;5.20;1.38;;;13.40;98.10;;;;;;4346617;36;20049;-72
2021/08/26 23:17:12;;;;;;;5.68;1.50;;;13.30;98.00;;;;;;4345288;36;20042;-72
2021/08/26 23:21:14;;;;;;;;;;;13.30;98.10;;;;;;4364605;36;20087;-73
2021/08/26 23:25:16;;;;;;;3.28;1.38;;;13.30;99.50;;;;;;4345912;36;19958;-73
2021/08/26 23:29:18;;;;;;;7.03;1.80;;;13.30;98.00;;;;;;4344829;36;20629;-72
2021/08/26 23:33:20;;;;;;;4.28;1.40;;;13.40;97.90;;;;;;4362512;36;20022;-73
2021/08/26 23:37:22;;;;;;;;;;;13.30;98.10;;;;;;4345159;36;20096;-75
2021/08/26 23:41:24;;;;;;;8.00;1.33;;;13.30;99.50;;;;;;4345959;36;20449;-74
2021/08/26 23:45:26;;;;;;;;;;;13.30;98.00;;;;;;4365044;36;20834;-73
2021/08/26 23:49:28;;;;;;;6.35;1.40;;;13.30;99.50;;;;;;4346603;36;19939;-73
2021/08/26 23:53:30;;;;;;;3.45;1.17;;;13.30;98.10;;;;;;4347213;36;20137;-73
2021/08/26 23:57:32;;;;;;;6.00;1.52;;;13.30;98.00;;;;;;4365697;36;20030;-73
